| Date | Time | Temp. (oF) | Dew Point (oF) | Rel. Hum. (%) | Press. (in.) | Wind Dir. | Wind Speed (mph) | Hourly Rainfall (in.) |
|
|---|---|---|---|---|---|---|---|---|---|
| 1 | 08/02 | 00:00 | 73 | 62 | 69 | 30.35 | SSE | 3 | 0.00 |
| 2 | 08/01 | 23:00 | 74 | 60 | 62 | 30.35 | S | 5 | 0.00 |
| 3 | 08/01 | 22:00 | 77 | 57 | 52 | 30.34 | SSW | 2 | 0.00 |
| 4 | 08/01 | 21:00 | 78 | 56 | 48 | 30.31 | SSW | 5 | 0.00 |
| 5 | 08/01 | 20:00 | 81 | 60 | 50 | 30.30 | SSW | 5 | 0.00 |
| 6 | 08/01 | 19:00 | 85 | 62 | 48 | 30.28 | S | 8 | 0.00 |
| 7 | 08/01 | 18:00 | 87 | 61 | 43 | 30.27 | S | 9 | 0.00 |
| 8 | 08/01 | 17:00 | 90 | 61 | 39 | 30.29 | S | 7 | 0.00 |
| 9 | 08/01 | 16:00 | 89 | 60 | 39 | 30.31 | SSE | 5 | 0.00 |
| 10 | 08/01 | 15:00 | 89 | 60 | 39 | 30.34 | SSW | 5 | 0.00 |
| 11 | 08/01 | 14:00 | 88 | 62 | 43 | 30.35 | SSE | 5 | 0.00 |
| 12 | 08/01 | 13:00 | 85 | 63 | 49 | 30.37 | S | 7 | 0.00 |
| 13 | 08/01 | 12:00 | 83 | 65 | 56 | 30.38 | SSW | 6 | 0.00 |
| 14 | 08/01 | 11:00 | 80 | 67 | 67 | 30.40 | ENE | 3 | 0.00 |
| 15 | 08/01 | 10:00 | 77 | 66 | 71 | 30.39 | WNW | 2 | 0.00 |
| 16 | 08/01 | 09:00 | 73 | 66 | 81 | 30.39 | SSE | 1 | 0.00 |
| 17 | 08/01 | 08:00 | 67 | 63 | 90 | 30.37 | SSE | 0 | 0.00 |
| 18 | 08/01 | 07:00 | 64 | 62 | 94 | 30.38 | ENE | 2 | 0.00 |
| 19 | 08/01 | 06:00 | 64 | 61 | 92 | 30.37 | ESE | 0 | 0.00 |
| 20 | 08/01 | 05:00 | 65 | 62 | 91 | 30.35 | ESE | 0 | 0.00 |
| 21 | 08/01 | 04:00 | 67 | 63 | 90 | 30.34 | ESE | 0 | 0.00 |
| 22 | 08/01 | 03:00 | 68 | 63 | 87 | 30.34 | NE | 0 | 0.00 |
| 23 | 08/01 | 02:00 | 70 | 64 | 84 | 30.33 | ENE | 0 | 0.00 |
| 24 | 08/01 | 01:00 | 71 | 64 | 80 | 30.33 | NE | 2 | 0.00 |